Time;durP1;ratioP1;P1;durP2;ratioP2;P2;SDS_P1;SDS_P2;PMS_P1;PMS_P2;Temp;Humidity;BMP_temperature;BMP_pressure;BME280_temperature;BME280_humidity;BME280_pressure;Samples;Min_cycle;Max_cycle;Signal;HPM_P1;HPM_P2
2022/10/12 00:04:36;;;;;;;2.45;1.58;;;;;;;10.36;76.13;100712.66;10444392;28;20033;-81
2022/10/12 00:09:39;;;;;;;2.17;1.40;;;;;;;10.19;75.91;100717.59;10444508;28;20060;-82
2022/10/12 00:14:42;;;;;;;2.10;1.30;;;;;;;10.31;76.50;100725.56;10444326;28;20539;-82
2022/10/12 00:19:44;;;;;;;3.90;1.70;;;;;;;10.07;77.46;100726.13;10444865;28;20045;-82
2022/10/12 00:24:47;;;;;;;3.90;1.38;;;;;;;10.11;77.43;100734.63;10444505;28;20042;-81
2022/10/12 00:29:49;;;;;;;4.35;1.23;;;;;;;10.04;76.89;100734.88;10434706;28;20064;-81
2022/10/12 00:34:51;;;;;;;5.30;1.67;;;;;;;10.06;77.73;100732.69;10444621;28;20048;-81
2022/10/12 00:39:53;;;;;;;1.60;1.00;;;;;;;10.19;76.40;100734.06;10445462;28;20055;-81
2022/10/12 00:44:55;;;;;;;3.60;1.50;;;;;;;10.13;77.71;100740.66;10446070;28;20044;-81
2022/10/12 00:50:20;;;;;;;5.50;2.30;;;;;;;10.40;76.97;100746.66;10470213;28;20053;-81
2022/10/12 00:55:24;;;;;;;1.38;1.10;;;;;;;10.33;76.66;100748.88;10459224;28;20079;-81
2022/10/12 01:00:31;;;;;;;4.45;1.30;;;;;;;10.31;76.82;100748.34;10443614;28;20052;-81
2022/10/12 01:05:34;;;;;;;3.17;1.37;;;;;;;10.20;76.99;100763.13;10439278;28;20049;-81
2022/10/12 01:10:36;;;;;;;3.88;1.25;;;;;;;10.39;76.57;100755.16;10451220;28;20033;-81
2022/10/12 01:16:02;;;;;;;4.47;1.30;;;;;;;10.29;76.34;100763.44;10465682;28;20049;-81
2022/10/12 01:21:20;;;;;;;4.07;1.55;;;;;;;10.21;77.56;100764.78;10440989;28;20040;-81
2022/10/12 01:26:28;;;;;;;2.47;1.20;;;;;;;10.14;76.86;100759.56;10441210;28;20049;-81
2022/10/12 01:31:44;;;;;;;1.65;1.15;;;;;;;10.15;78.22;100765.88;10428496;28;20037;-81
2022/10/12 01:36:53;;;;;;;2.95;1.20;;;;;;;10.25;77.18;100763.16;10443126;28;20125;-81
2022/10/12 01:42:09;;;;;;;3.58;1.13;;;;;;;9.84;78.22;100768.59;10440698;28;20033;-81
2022/10/12 01:47:12;;;;;;;1.88;1.40;;;;;;;9.93;77.39;100788.91;10451624;28;20041;-81
2022/10/12 01:52:17;;;;;;;5.70;1.40;;;;;;;9.95;78.88;100788.63;10444270;28;20044;-81
2022/10/12 01:57:34;;;;;;;3.80;1.83;;;;;;;10.17;77.84;100794.66;10444422;28;20516;-81
2022/10/12 02:02:51;;;;;;;5.25;1.30;;;;;;;10.44;77.29;100802.66;10443448;28;20034;-81
2022/10/12 02:08:25;;;;;;;3.43;1.07;;;;;;;10.48;76.48;100806.47;10461436;28;20044;-81
2022/10/12 02:13:29;;;;;;;2.83;1.30;;;;;;;10.50;76.70;100798.78;10468304;28;21055;-82
2022/10/12 02:18:33;;;;;;;3.53;1.13;;;;;;;10.67;76.04;100811.38;10467296;28;20045;-81
2022/10/12 02:23:35;;;;;;;1.55;0.98;;;;;;;10.42;76.86;100810.34;10472666;28;20040;-80
2022/10/12 02:28:38;;;;;;;1.08;0.95;;;;;;;10.33;77.08;100805.66;10461522;28;20120;-81
2022/10/12 02:34:10;;;;;;;2.17;1.00;;;;;;;10.30;77.18;100818.00;10445713;28;20033;-82
2022/10/12 02:39:22;;;;;;;4.40;1.42;;;;;;;10.25;78.64;100820.75;10446858;28;20059;-81
2022/10/12 02:44:27;;;;;;;6.13;1.10;;;;;;;10.27;78.63;100826.78;10450078;28;20060;-81
2022/10/12 02:49:31;;;;;;;3.72;1.02;;;;;;;10.16;78.68;100819.63;10448585;28;20033;-81
2022/10/12 02:54:33;;;;;;;5.00;1.38;;;;;;;10.29;78.75;100824.59;10448542;28;20033;-81
2022/10/12 02:59:35;;;;;;;3.95;1.27;;;;;;;10.18;78.37;100826.47;10449202;28;20038;-81
2022/10/12 03:04:38;;;;;;;3.10;1.05;;;;;;;10.35;78.12;100839.13;10450119;28;20423;-82
2022/10/12 03:09:40;;;;;;;4.63;1.50;;;;;;;10.38;77.89;100839.38;10448109;28;20057;-81
2022/10/12 03:14:42;;;;;;;2.95;0.77;;;;;;;10.16;77.73;100847.88;10445194;28;20504;-84
2022/10/12 03:19:44;;;;;;;2.38;0.88;;;;;;;10.49;77.52;100842.97;10460949;28;20044;-81
2022/10/12 03:24:46;;;;;;;3.63;1.33;;;;;;;10.28;78.49;100847.63;10471089;28;20049;-81
2022/10/12 03:29:53;;;;;;;3.28;1.00;;;;;;;10.15;78.44;100846.22;10448172;28;20056;-81
2022/10/12 03:34:56;;;;;;;2.80;1.03;;;;;;;10.12;79.23;100852.25;10454974;28;20057;-80
2022/10/12 03:39:58;;;;;;;5.78;0.82;;;;;;;10.15;78.84;100856.38;10443995;28;20041;-80
2022/10/12 03:45:00;;;;;;;3.28;1.08;;;;;;;10.43;78.22;100852.31;10452792;28;20590;-81
2022/10/12 03:50:03;;;;;;;4.53;0.90;;;;;;;10.23;78.28;100853.09;10444739;28;20052;-82
2022/10/12 03:55:06;;;;;;;1.63;0.85;;;;;;;10.05;78.66;100857.16;10474304;28;20083;-80
2022/10/12 04:00:08;;;;;;;7.30;1.83;;;;;;;10.34;77.54;100875.88;10459223;28;20067;-80
2022/10/12 04:05:14;;;;;;;5.82;1.83;;;;;;;10.54;76.93;100862.16;10447407;28;20056;-80
2022/10/12 04:10:16;;;;;;;4.65;1.23;;;;;;;10.27;77.68;100868.75;10468762;28;20052;-80
2022/10/12 04:15:47;;;;;;;7.35;1.45;;;;;;;10.57;77.09;100867.09;10470456;28;20042;-81
2022/10/12 04:20:50;;;;;;;4.05;1.15;;;;;;;10.33;76.74;100866.81;10466537;28;20048;-85
2022/10/12 04:25:52;;;;;;;3.53;1.55;;;;;;;10.11;77.46;100880.78;10462383;28;20053;-83
2022/10/12 04:30:55;;;;;;;3.53;1.15;;;;;;;9.70;78.52;100882.56;10441545;28;20048;-82
2022/10/12 04:35:58;;;;;;;3.05;1.10;;;;;;;9.87;79.06;100885.09;10438338;28;20060;-84
2022/10/12 04:41:04;;;;;;;4.45;1.55;;;;;;;9.43;81.33;100884.69;10437328;28;20057;-84
2022/10/12 04:46:06;;;;;;;3.90;2.30;;;;;;;9.38;81.55;100890.16;10451225;28;20083;-84
2022/10/12 04:51:09;;;;;;;2.85;1.50;;;;;;;9.32;82.08;100892.03;10451494;28;20062;-84
2022/10/12 04:56:15;;;;;;;7.28;1.92;;;;;;;9.05;83.73;100903.13;10444360;28;20045;-82
2022/10/12 05:01:21;;;;;;;1.65;1.20;;;;;;;8.71;83.76;100906.16;10452345;28;20041;-82
2022/10/12 05:06:24;;;;;;;3.00;1.30;;;;;;;9.06;84.74;100908.31;10469216;28;20041;-82
2022/10/12 05:11:26;;;;;;;7.50;1.40;;;;;;;9.34;83.75;100911.75;10445677;28;20435;-83
2022/10/12 05:16:57;;;;;;;3.20;1.48;;;;;;;9.75;83.06;100904.53;10442159;28;20053;-84
2022/10/12 05:22:00;;;;;;;2.97;1.40;;;;;;;10.27;80.57;100912.63;10464085;28;20049;-87
2022/10/12 05:27:11;;;;;;;2.28;1.08;;;;;;;10.70;79.15;100912.38;10451427;28;20455;-86
2022/10/12 05:32:18;;;;;;;2.10;0.90;;;;;;;10.83;76.93;100925.53;10461771;28;20037;-85
2022/10/12 05:37:20;;;;;;;6.40;1.60;;;;;;;10.83;77.02;100926.38;10458265;28;20384;-85
2022/10/12 05:42:22;;;;;;;3.75;1.50;;;;;;;10.72;76.37;100932.13;10458986;28;20056;-85
2022/10/12 05:47:24;;;;;;;2.33;1.00;;;;;;;10.43;76.86;100931.88;10466189;28;20056;-86
2022/10/12 05:52:30;;;;;;;2.55;1.20;;;;;;;10.17;78.19;100941.94;10469926;28;20044;-88
2022/10/12 05:57:37;;;;;;;5.07;1.88;;;;;;;9.84;79.02;100938.53;10473043;28;20048;-88
2022/10/12 06:02:43;;;;;;;9.38;3.67;;;;;;;9.81;79.46;100952.78;10457258;28;20072;-85
2022/10/12 06:07:49;;;;;;;8.52;3.60;;;;;;;9.65;79.70;100960.13;10416723;28;20041;-89
2022/10/12 06:12:51;;;;;;;6.22;2.17;;;;;;;9.35;80.88;100966.25;10452640;28;20424;-85
2022/10/12 06:17:54;;;;;;;4.13;1.70;;;;;;;9.19;82.03;100982.84;10470939;28;20045;-88
2022/10/12 06:22:56;;;;;;;4.45;1.65;;;;;;;9.15;82.49;100985.28;10455083;28;20061;-88
2022/10/12 06:27:58;;;;;;;4.38;1.90;;;;;;;9.00;83.34;100987.91;10457909;28;20447;-92
2022/10/12 06:33:00;;;;;;;5.53;2.20;;;;;;;9.14;83.88;100988.28;10457639;28;20048;-92
2022/10/12 06:38:07;;;;;;;5.47;1.85;;;;;;;9.09;83.89;100988.28;10453514;28;20049;-92
2022/10/12 06:43:10;;;;;;;4.40;1.73;;;;;;;9.22;83.57;100998.78;10451302;28;20051;-93
2022/10/12 06:48:12;;;;;;;2.75;1.35;;;;;;;9.15;83.27;100993.50;10450628;28;20563;-92
2022/10/12 06:53:20;;;;;;;2.03;1.52;;;;;;;9.30;83.69;100990.88;10449934;28;20487;-90
2022/10/12 06:58:23;;;;;;;4.07;1.40;;;;;;;9.28;83.81;100997.72;10450771;28;20041;-92
2022/10/12 07:03:25;;;;;;;2.90;1.60;;;;;;;9.67;82.60;101001.78;10451297;28;20056;-92
2022/10/12 07:08:27;;;;;;;7.35;1.52;;;;;;;9.69;82.05;100993.28;10450566;28;20397;-92
2022/10/12 07:13:30;;;;;;;2.58;1.30;;;;;;;9.72;82.35;100997.41;10447160;28;20049;-91
2022/10/12 07:18:33;;;;;;;2.70;1.27;;;;;;;9.86;81.81;100998.56;10450456;28;20046;-92
2022/10/12 07:23:37;;;;;;;2.78;1.77;;;;;;;9.95;81.69;101000.53;10450329;28;20045;-92
2022/10/12 07:28:39;;;;;;;3.42;1.42;;;;;;;10.06;81.21;101014.28;10450115;28;20045;-92
2022/10/12 07:33:41;;;;;;;2.92;1.23;;;;;;;10.46;79.56;101019.94;10450109;28;20053;-91
2022/10/12 07:38:43;;;;;;;1.83;1.10;;;;;;;10.52;79.32;101018.84;10449864;28;20050;-91
2022/10/12 07:43:46;;;;;;;2.70;1.27;;;;;;;10.91;78.16;101015.56;10449968;28;20057;-90
2022/10/12 07:48:48;;;;;;;2.80;1.20;;;;;;;11.42;75.91;101018.28;10448827;28;20053;-92
2022/10/12 07:53:50;;;;;;;6.15;1.50;;;;;;;11.69;73.77;101027.03;10448269;28;20046;-91
2022/10/12 07:58:54;;;;;;;4.00;1.17;;;;;;;12.57;71.23;101020.06;10446796;28;20076;-91
2022/10/12 08:03:57;;;;;;;7.57;1.90;;;;;;;12.79;69.60;101025.97;10448158;28;20052;-91
2022/10/12 08:09:00;;;;;;;5.72;1.80;;;;;;;13.14;67.08;101029.53;10446707;28;20053;-91
2022/10/12 08:14:31;;;;;;;3.97;1.42;;;;;;;12.85;66.66;101038.59;10430310;28;20057;-91
2022/10/12 08:19:34;;;;;;;8.95;1.77;;;;;;;13.03;66.92;101033.50;10449703;28;20065;-91
2022/10/12 08:24:36;;;;;;;6.45;1.80;;;;;;;12.56;67.07;101045.94;10447675;28;20037;-89
2022/10/12 08:29:39;;;;;;;4.32;1.48;;;;;;;12.33;66.79;101045.53;10446806;28;20041;-91
2022/10/12 08:34:41;;;;;;;7.28;1.60;;;;;;;11.89;68.11;101036.34;10447835;28;20463;-91
2022/10/12 08:39:43;;;;;;;9.98;1.67;;;;;;;11.78;69.21;101036.38;10453018;28;20053;-91
2022/10/12 08:44:51;;;;;;;5.80;1.88;;;;;;;11.57;69.48;101037.50;10456837;28;20060;-92
2022/10/12 08:49:53;;;;;;;7.72;1.73;;;;;;;11.52;69.36;101043.03;10410409;28;20068;-90
2022/10/12 08:55:01;;;;;;;7.38;1.85;;;;;;;11.28;69.83;101058.41;10422166;28;20038;-90
2022/10/12 09:00:03;;;;;;;7.45;1.00;;;;;;;11.05;70.16;101052.38;10405241;28;20065;-89
2022/10/12 09:05:13;;;;;;;4.53;1.25;;;;;;;11.10;69.49;101063.34;10405034;28;20559;-91
2022/10/12 09:10:42;;;;;;;2.17;1.10;;;;;;;10.87;68.92;101056.50;10403665;28;20046;-91
2022/10/12 09:16:24;;;;;;;5.30;1.52;;;;;;;10.69;69.07;101056.19;10405039;28;20056;-90
2022/10/12 09:21:31;;;;;;;;;;;;;;;10.65;70.72;101066.88;10391968;28;20054;-92
2022/10/12 09:26:40;;;;;;;5.50;1.20;;;;;;;10.63;70.83;101062.78;10406124;28;19922;-91
2022/10/12 09:31:46;;;;;;;3.65;1.30;;;;;;;10.74;71.06;101057.00;10429835;28;20068;-91
2022/10/12 09:36:49;;;;;;;0.60;0.60;;;;;;;10.70;70.80;101069.63;10455015;28;20041;-91
2022/10/12 09:41:51;;;;;;;1.70;0.93;;;;;;;10.71;71.28;101071.28;10482771;28;20495;-91
2022/10/12 09:47:02;;;;;;;2.15;0.70;;;;;;;10.78;70.80;101069.13;10467844;28;20107;-91
2022/10/12 09:52:05;;;;;;;;;;;;;;;10.93;68.53;101072.97;10435340;28;20415;-91
2022/10/12 09:57:07;;;;;;;3.45;0.77;;;;;;;10.84;68.71;101072.69;10458996;28;19928;-90
2022/10/12 10:02:10;;;;;;;1.17;0.60;;;;;;;10.82;68.16;101059.25;10482922;28;20061;-90
2022/10/12 10:07:19;;;;;;;0.70;0.40;;;;;;;10.68;66.59;101077.31;10474117;28;20140;-90
2022/10/12 10:12:27;;;;;;;0.65;0.40;;;;;;;10.54;65.97;101081.66;10444031;28;20526;-91
2022/10/12 10:17:59;;;;;;;1.63;0.47;;;;;;;10.51;65.49;101082.22;10447582;28;20050;-91
2022/10/12 10:23:27;;;;;;;1.13;0.60;;;;;;;10.61;65.07;101081.44;10452878;28;20436;-91
2022/10/12 10:28:55;;;;;;;;;;;;;;;10.57;63.39;101083.88;10410970;28;21022;-92
2022/10/12 10:34:06;;;;;;;1.20;0.30;;;;;;;10.50;63.41;101092.38;10411602;28;19921;-92
2022/10/12 10:39:19;;;;;;;0.47;0.30;;;;;;;10.49;63.55;101084.41;10410091;28;20038;-92
2022/10/12 10:44:51;;;;;;;1.33;0.45;;;;;;;10.36;63.66;101093.97;10414181;28;20536;-91
2022/10/12 10:50:00;;;;;;;1.05;0.40;;;;;;;10.37;64.00;101095.59;10394611;28;20054;-92
2022/10/12 10:55:14;;;;;;;0.43;0.30;;;;;;;10.31;64.50;101095.88;10409395;28;20044;-91
2022/10/12 11:00:20;;;;;;;1.80;0.80;;;;;;;10.17;64.58;101110.03;10421209;28;20049;-92
2022/10/12 11:05:35;;;;;;;0.20;0.17;;;;;;;10.25;65.42;101108.75;10450350;28;20038;-92
2022/10/12 11:10:47;;;;;;;1.40;0.38;;;;;;;10.31;64.91;101115.88;10448827;28;20037;-91
2022/10/12 11:15:53;;;;;;;0.90;0.30;;;;;;;10.15;65.72;101114.13;10422974;28;20534;-82
2022/10/12 11:21:43;;;;;;;0.40;0.20;;;;;;;10.12;65.85;101122.91;10452402;28;20037;-95
2022/10/12 11:27:09;;;;;;;0.73;0.30;;;;;;;10.06;65.84;101123.94;10419758;28;20052;-90
2022/10/12 11:32:31;;;;;;;2.17;0.50;;;;;;;9.98;65.68;101117.88;10450520;28;20419;-91
2022/10/12 11:37:49;;;;;;;1.17;0.52;;;;;;;9.92;64.96;101113.47;10438771;28;20037;-92
2022/10/12 11:43:02;;;;;;;0.45;0.38;;;;;;;9.90;64.28;101117.56;10463835;28;20038;-92
2022/10/12 11:48:15;;;;;;;0.57;0.40;;;;;;;9.81;64.68;101121.88;10452796;28;20053;-89
2022/10/12 11:53:30;;;;;;;0.57;0.38;;;;;;;9.74;65.76;101124.88;10462002;28;20075;-89
2022/10/12 11:58:54;;;;;;;0.75;0.50;;;;;;;9.75;66.03;101125.69;10464204;28;20051;-92
2022/10/12 12:04:17;;;;;;;0.70;0.40;;;;;;;9.77;64.95;101127.06;10449891;28;20132;-91
2022/10/12 12:09:33;;;;;;;1.90;0.60;;;;;;;9.79;66.27;101127.63;10464455;28;20063;-89
2022/10/12 12:22:25;;;;;;;2.28;0.68;;;;;;;9.95;66.78;101136.78;10459471;28;20522;-87
2022/10/12 12:27:32;;;;;;;1.60;0.32;;;;;;;9.85;66.01;101136.72;10461279;28;20040;-86
2022/10/12 12:32:47;;;;;;;0.67;0.50;;;;;;;9.94;65.99;101141.44;10436867;28;20037;-88
2022/10/12 12:38:13;;;;;;;0.47;0.32;;;;;;;9.81;65.57;101138.34;10446338;28;20629;-94
2022/10/12 12:43:28;;;;;;;0.77;0.40;;;;;;;9.65;65.60;101151.91;10435933;28;20415;-90
2022/10/12 12:48:42;;;;;;;1.38;0.50;;;;;;;9.60;66.79;101149.16;10436948;28;20041;-92
2022/10/12 12:54:05;;;;;;;0.75;0.28;;;;;;;9.56;66.87;101149.94;10446132;28;20438;-90
2022/10/12 12:59:35;;;;;;;1.75;0.50;;;;;;;9.54;67.49;101161.13;10442583;28;20467;-89
2022/10/12 13:04:40;;;;;;;4.88;1.02;;;;;;;9.63;68.52;101158.75;10445287;28;20050;-89
2022/10/12 13:10:00;;;;;;;0.55;0.50;;;;;;;9.62;68.56;101165.31;10446016;28;20056;-88
2022/10/12 13:15:15;;;;;;;0.77;0.47;;;;;;;9.82;68.48;101175.63;10444709;28;20420;-89
2022/10/12 13:20:37;;;;;;;2.58;0.80;;;;;;;9.73;68.22;101169.81;10445381;28;20046;-88
2022/10/12 13:25:49;;;;;;;3.63;0.50;;;;;;;9.73;67.73;101172.56;10444932;28;20049;-90
2022/10/12 13:30:51;;;;;;;3.35;0.85;;;;;;;9.76;68.21;101173.94;10443866;28;20041;-89
2022/10/12 13:36:07;;;;;;;1.10;0.63;;;;;;;9.72;66.92;101179.13;10444634;28;20053;-89
2022/10/12 13:41:19;;;;;;;1.40;0.63;;;;;;;9.50;66.71;101184.66;10443002;28;20037;-88
2022/10/12 13:46:43;;;;;;;0.43;0.30;;;;;;;9.39;66.59;101195.81;10441055;28;20051;-87
2022/10/12 13:51:48;;;;;;;1.58;0.57;;;;;;;9.31;67.58;101197.91;10441750;28;20060;-91
2022/10/12 13:56:57;;;;;;;2.35;0.70;;;;;;;9.21;68.52;101206.06;10452083;28;20042;-92
2022/10/12 14:02:01;;;;;;;2.33;0.73;;;;;;;9.19;68.77;101210.94;10440053;28;20048;-87
2022/10/12 14:07:05;;;;;;;2.30;0.50;;;;;;;9.17;68.82;101210.38;10449805;28;20056;-88
2022/10/12 14:12:37;;;;;;;1.75;0.90;;;;;;;9.17;69.62;101204.06;10435400;28;20041;-83
2022/10/12 14:17:44;;;;;;;1.33;0.80;;;;;;;9.09;70.00;101224.53;10454295;28;20491;-86
2022/10/12 14:22:47;;;;;;;0.70;0.60;;;;;;;8.89;71.33;101235.25;10433166;28;20041;-87
2022/10/12 14:27:58;;;;;;;4.00;0.90;;;;;;;8.86;71.55;101231.13;10409715;28;20090;-87
2022/10/12 14:33:16;;;;;;;1.83;1.00;;;;;;;8.91;71.59;101231.16;10448514;28;20419;-93
2022/10/12 14:38:38;;;;;;;2.15;0.77;;;;;;;8.78;71.10;101231.56;10457453;28;20415;-90
2022/10/12 14:43:40;;;;;;;3.40;0.88;;;;;;;8.61;71.55;101236.25;10444960;28;20042;-90
2022/10/12 14:48:49;;;;;;;2.20;0.75;;;;;;;8.65;72.05;101246.44;10444095;28;20041;-89
2022/10/12 14:54:03;;;;;;;4.63;0.90;;;;;;;8.58;72.03;101245.81;10437787;28;20056;-85
2022/10/12 14:59:30;;;;;;;2.33;0.60;;;;;;;8.58;72.36;101255.91;10453421;28;20048;-91
2022/10/12 15:04:33;;;;;;;1.15;0.63;;;;;;;8.59;71.52;101255.66;10452430;28;20049;-82
2022/10/12 15:09:35;;;;;;;1.48;0.63;;;;;;;8.79;70.67;101265.22;10438483;28;20053;-77
2022/10/12 15:14:38;;;;;;;0.50;0.50;;;;;;;8.75;70.62;101263.00;10435064;28;20048;-74
2022/10/12 15:19:48;;;;;;;3.20;0.75;;;;;;;8.62;70.49;101263.34;10432063;28;20041;-74
2022/10/12 15:24:52;;;;;;;2.40;0.73;;;;;;;8.62;71.38;101271.56;10441956;28;20044;-78
2022/10/12 15:29:54;;;;;;;1.50;0.68;;;;;;;8.58;70.99;101273.16;10441280;28;20052;-79
2022/10/12 15:35:23;;;;;;;2.55;0.90;;;;;;;8.65;70.99;101275.69;10431581;28;20413;-79
2022/10/12 15:40:29;;;;;;;3.08;1.20;;;;;;;8.59;71.05;101283.00;10430580;28;20527;-81
2022/10/12 15:45:34;;;;;;;2.25;1.23;;;;;;;8.63;70.25;101286.91;10423849;28;20052;-80
2022/10/12 15:50:48;;;;;;;2.67;1.30;;;;;;;8.71;70.62;101291.13;10408601;28;20116;-86
2022/10/12 15:55:52;;;;;;;3.50;1.05;;;;;;;8.63;71.04;101297.84;10434973;28;20120;-82
2022/10/12 16:00:59;;;;;;;2.20;1.10;;;;;;;8.72;70.62;101301.81;10444911;28;20049;-82
2022/10/12 16:06:02;;;;;;;2.05;1.02;;;;;;;8.68;69.78;101313.53;10445256;28;20043;-83
2022/10/12 16:11:11;;;;;;;2.85;1.48;;;;;;;8.65;69.99;101312.09;10446775;28;20504;-83
2022/10/12 16:16:17;;;;;;;3.15;1.20;;;;;;;8.67;69.95;101311.84;10422927;28;20056;-83
2022/10/12 16:21:20;;;;;;;2.53;1.58;;;;;;;8.68;70.48;101311.63;10417059;28;20049;-83
2022/10/12 16:26:22;;;;;;;2.35;1.20;;;;;;;8.69;69.78;101321.47;10441903;28;20056;-82
2022/10/12 16:31:24;;;;;;;1.58;1.00;;;;;;;8.70;69.85;101312.19;10441708;28;20033;-82
2022/10/12 16:36:26;;;;;;;2.67;1.10;;;;;;;8.71;69.43;101316.56;10442200;28;20056;-82
2022/10/12 16:41:29;;;;;;;4.05;1.30;;;;;;;8.64;69.30;101306.88;10437197;28;20431;-82
2022/10/12 16:46:35;;;;;;;1.75;0.80;;;;;;;8.81;69.82;101312.31;10425028;28;20038;-82
2022/10/12 16:51:38;;;;;;;1.13;0.88;;;;;;;8.70;69.32;101309.44;10441441;28;20040;-82
2022/10/12 16:56:40;;;;;;;3.15;1.00;;;;;;;8.86;69.05;101305.00;10431735;28;20060;-81
2022/10/12 17:01:43;;;;;;;1.30;1.00;;;;;;;9.02;69.09;101319.69;10441753;28;20045;-82
2022/10/12 17:06:45;;;;;;;4.10;1.15;;;;;;;9.05;69.44;101316.47;10424705;28;20411;-81
2022/10/12 17:11:48;;;;;;;1.75;1.30;;;;;;;8.97;69.46;101316.91;10442623;28;20037;-81
2022/10/12 17:16:51;;;;;;;2.30;1.50;;;;;;;9.00;69.39;101321.88;10441317;28;20053;-81
2022/10/12 17:21:58;;;;;;;2.75;1.50;;;;;;;8.91;69.84;101326.97;10416997;28;20037;-81
2022/10/12 17:27:02;;;;;;;4.65;1.50;;;;;;;9.01;69.79;101331.72;10440874;28;20049;-83
2022/10/12 17:32:08;;;;;;;;;;;;;;;8.92;69.46;101327.78;10442599;28;20118;-81
2022/10/12 17:37:20;;;;;;;2.53;1.00;;;;;;;8.71;69.72;101338.47;10441951;28;19920;-83
2022/10/12 17:42:23;;;;;;;4.93;1.77;;;;;;;8.40;70.68;101344.53;10442147;28;20536;-83
2022/10/12 17:47:28;;;;;;;4.05;1.20;;;;;;;8.13;71.88;101347.91;10442175;28;20495;-82
2022/10/12 17:52:38;;;;;;;5.38;1.70;;;;;;;7.92;72.44;101345.91;10442564;28;20037;-82
2022/10/12 17:57:40;;;;;;;4.07;1.00;;;;;;;7.79;72.58;101346.19;10444892;28;20420;-82
2022/10/12 18:02:43;;;;;;;2.53;0.98;;;;;;;7.73;73.39;101358.09;10445431;28;20038;-83
2022/10/12 18:07:45;;;;;;;2.03;0.90;;;;;;;7.72;74.36;101359.19;10444892;28;20049;-83
2022/10/12 18:12:47;;;;;;;1.20;1.00;;;;;;;7.64;73.73;101370.53;10460792;28;20033;-82
2022/10/12 18:17:50;;;;;;;2.55;1.35;;;;;;;7.59;74.57;101365.75;10442168;28;20038;-82
2022/10/12 18:22:52;;;;;;;2.95;1.40;;;;;;;7.59;75.25;101363.03;10446867;28;20053;-81
2022/10/12 18:27:55;;;;;;;2.75;1.33;;;;;;;7.60;74.75;101361.13;10439735;28;20420;-77
2022/10/12 18:32:59;;;;;;;1.70;1.08;;;;;;;7.51;74.82;101367.00;10436339;28;20037;-83
2022/10/12 18:38:05;;;;;;;2.38;1.15;;;;;;;7.48;75.48;101372.13;10409389;28;20503;-83
2022/10/12 18:43:07;;;;;;;4.13;0.90;;;;;;;7.35;76.21;101370.50;10440842;28;20042;-84
2022/10/12 18:48:11;;;;;;;2.45;1.20;;;;;;;7.36;76.30;101366.69;10442851;28;20041;-85
2022/10/12 18:53:14;;;;;;;2.53;1.10;;;;;;;7.35;76.36;101362.28;10433487;28;20045;-84
2022/10/12 18:58:16;;;;;;;3.03;1.00;;;;;;;7.42;76.13;101367.59;10449311;28;20044;-84
2022/10/12 19:03:18;;;;;;;1.25;1.08;;;;;;;7.39;76.30;101371.66;10444784;28;20056;-87
2022/10/12 19:08:21;;;;;;;2.70;1.65;;;;;;;7.36;76.67;101372.16;10447488;28;20049;-87
2022/10/12 19:13:23;;;;;;;4.93;1.58;;;;;;;7.18;77.22;101378.59;10445657;28;20046;-89
2022/10/12 19:18:26;;;;;;;2.80;1.52;;;;;;;7.10;78.22;101380.84;10471366;28;20045;-87
2022/10/12 19:23:29;;;;;;;3.35;1.50;;;;;;;7.10;77.40;101381.69;10450126;28;20052;-82
2022/10/12 19:28:31;;;;;;;4.25;1.73;;;;;;;7.06;78.13;101385.97;10445083;28;20487;-88
2022/10/12 19:33:34;;;;;;;4.25;1.40;;;;;;;7.02;77.58;101384.78;10448942;28;20041;-84
2022/10/12 19:38:37;;;;;;;1.50;0.95;;;;;;;7.02;77.98;101383.97;10413102;28;20633;-81
2022/10/12 19:43:39;;;;;;;3.38;1.20;;;;;;;6.90;77.46;101401.16;10444470;28;20037;-80
2022/10/12 19:48:41;;;;;;;2.47;1.10;;;;;;;6.98;78.02;101400.00;10450022;28;20053;-78
2022/10/12 19:53:44;;;;;;;3.75;1.25;;;;;;;6.94;77.92;101391.47;10447855;28;20060;-81
2022/10/12 19:58:48;;;;;;;2.97;1.10;;;;;;;6.88;78.19;101394.28;10453055;28;20037;-79
2022/10/12 20:03:50;;;;;;;4.20;1.50;;;;;;;6.90;78.91;101398.44;10442119;28;20052;-78
2022/10/12 20:08:57;;;;;;;2.10;1.00;;;;;;;7.02;79.13;101403.06;10444270;28;20040;-80
2022/10/12 20:14:00;;;;;;;3.92;1.50;;;;;;;6.97;78.89;101406.53;10443367;28;20064;-77
2022/10/12 20:19:03;;;;;;;1.77;0.93;;;;;;;6.90;79.90;101408.53;10436751;28;20044;-78
2022/10/12 20:24:09;;;;;;;2.28;1.10;;;;;;;6.81;80.23;101405.34;10446434;28;20408;-77
2022/10/12 20:29:11;;;;;;;2.17;1.15;;;;;;;6.87;80.66;101409.84;10444987;28;20045;-77
2022/10/12 20:34:13;;;;;;;5.25;1.65;;;;;;;6.85;80.78;101414.69;10446306;28;20050;-76
2022/10/12 20:39:15;;;;;;;2.85;1.17;;;;;;;6.84;81.38;101415.78;10452507;28;20071;-74
2022/10/12 20:44:17;;;;;;;1.63;1.10;;;;;;;6.91;80.96;101413.75;10438624;28;20045;-82
2022/10/12 20:49:30;;;;;;;4.10;2.00;;;;;;;6.88;80.35;101422.41;10422198;28;20041;-78
2022/10/12 20:54:34;;;;;;;4.13;2.28;;;;;;;6.82;80.46;101426.09;10434739;28;20056;-77
2022/10/12 20:59:37;;;;;;;4.55;1.70;;;;;;;6.74;80.59;101428.31;10433538;28;20052;-78
2022/10/12 21:04:39;;;;;;;2.35;1.52;;;;;;;6.66;81.16;101429.53;10448715;28;20045;-77
2022/10/12 21:09:41;;;;;;;4.57;1.65;;;;;;;6.60;81.32;101439.47;10453832;28;20043;-76
2022/10/12 21:14:43;;;;;;;6.18;1.50;;;;;;;6.47;80.59;101445.16;10440608;28;20429;-77
2022/10/12 21:19:45;;;;;;;2.95;1.90;;;;;;;6.40;80.42;101446.28;10456925;28;20061;-81
2022/10/12 21:24:50;;;;;;;3.33;1.58;;;;;;;6.25;80.61;101447.59;10441988;28;20058;-80
2022/10/12 21:29:52;;;;;;;2.53;1.42;;;;;;;6.26;81.80;101449.25;10461177;28;21781;-78
2022/10/12 21:34:54;;;;;;;3.50;1.85;;;;;;;6.30;81.06;101464.06;10443249;28;20046;-77
2022/10/12 21:39:56;;;;;;;3.95;1.90;;;;;;;6.28;81.21;101466.19;10454412;28;20049;-81
2022/10/12 21:44:58;;;;;;;2.75;1.60;;;;;;;6.28;81.52;101462.63;10442631;28;20144;-80
2022/10/12 21:50:00;;;;;;;5.55;1.30;;;;;;;6.27;82.29;101466.44;10448446;28;20527;-78
2022/10/12 21:55:03;;;;;;;5.05;1.20;;;;;;;6.69;83.52;101469.94;10441258;28;20037;-80
2022/10/12 22:00:06;;;;;;;2.78;1.20;;;;;;;7.50;82.86;101480.03;10440700;28;20516;-79
2022/10/12 22:05:14;;;;;;;4.10;1.60;;;;;;;8.13;80.68;101472.81;10441752;28;20048;-78
2022/10/12 22:10:16;;;;;;;2.85;1.38;;;;;;;8.32;78.84;101477.00;10440666;28;20515;-78
2022/10/12 22:15:18;;;;;;;3.97;1.13;;;;;;;8.38;77.62;101475.25;10447492;28;20061;-77
2022/10/12 22:20:21;;;;;;;4.88;1.65;;;;;;;8.49;76.79;101482.53;10446857;28;20042;-78
2022/10/12 22:25:27;;;;;;;1.38;1.02;;;;;;;8.61;75.20;101480.56;10451435;28;20045;-80
2022/10/12 22:30:30;;;;;;;2.00;1.20;;;;;;;8.50;75.97;101484.19;10454986;28;20064;-80
2022/10/12 22:35:32;;;;;;;3.10;1.40;;;;;;;8.50;75.71;101491.56;10448447;28;20033;-79
2022/10/12 22:40:35;;;;;;;4.35;1.63;;;;;;;8.52;74.53;101503.94;10445296;28;20037;-79
2022/10/12 22:45:37;;;;;;;3.35;1.77;;;;;;;8.28;75.68;101502.34;10447286;28;20407;-80
2022/10/12 22:50:42;;;;;;;3.30;1.75;;;;;;;8.02;76.40;101510.06;10450681;28;20042;-79
2022/10/12 22:55:47;;;;;;;6.40;2.20;;;;;;;8.27;75.84;101509.72;10442021;28;20041;-80
2022/10/12 23:00:49;;;;;;;4.45;1.63;;;;;;;8.20;75.93;101508.22;10436254;28;20034;-78
2022/10/12 23:05:51;;;;;;;7.15;2.20;;;;;;;8.12;76.30;101509.44;10432636;28;20046;-83
2022/10/12 23:10:54;;;;;;;3.92;1.60;;;;;;;7.87;76.14;101507.03;10447604;28;20052;-80
2022/10/12 23:16:02;;;;;;;3.63;1.52;;;;;;;8.19;75.76;101512.88;10447938;28;20419;-80
2022/10/12 23:21:10;;;;;;;2.17;1.00;;;;;;;8.28;75.17;101516.03;10443148;28;20049;-81
2022/10/12 23:26:16;;;;;;;4.35;1.67;;;;;;;8.27;75.83;101511.63;10445846;28;20037;-79
2022/10/12 23:31:20;;;;;;;3.55;1.45;;;;;;;8.22;75.24;101511.53;10439054;28;20050;-77
2022/10/12 23:36:26;;;;;;;1.73;1.15;;;;;;;8.08;76.11;101519.19;10429267;28;20040;-78
2022/10/12 23:41:28;;;;;;;3.28;1.30;;;;;;;8.02;76.30;101529.22;10448602;28;20045;-79
2022/10/12 23:46:30;;;;;;;1.98;1.17;;;;;;;8.31;75.94;101527.28;10446895;28;20651;-87
2022/10/12 23:51:34;;;;;;;2.95;1.63;;;;;;;8.30;75.57;101527.53;10443825;28;20030;-82
2022/10/12 23:56:37;;;;;;;5.13;1.63;;;;;;;8.25;75.09;101524.72;10465205;28;20045;-83
